sensor_id;sensor_type;location;lat;lon;timestamp;temperature;humidity
9125;DHT22;4597;48.730;9.114;2023-07-13T00:02:15;21.20;62.90
9125;DHT22;4597;48.730;9.114;2023-07-13T00:04:40;21.20;63.00
9125;DHT22;4597;48.730;9.114;2023-07-13T00:07:07;21.20;64.10
9125;DHT22;4597;48.730;9.114;2023-07-13T00:09:32;21.10;63.20
9125;DHT22;4597;48.730;9.114;2023-07-13T00:11:58;21.20;63.40
9125;DHT22;4597;48.730;9.114;2023-07-13T00:14:24;21.10;62.60
9125;DHT22;4597;48.730;9.114;2023-07-13T00:16:50;21.00;62.50
9125;DHT22;4597;48.730;9.114;2023-07-13T00:19:16;21.00;63.10
9125;DHT22;4597;48.730;9.114;2023-07-13T00:21:41;21.00;62.80
9125;DHT22;4597;48.730;9.114;2023-07-13T00:24:10;21.00;62.70
9125;DHT22;4597;48.730;9.114;2023-07-13T00:26:38;20.90;63.30
9125;DHT22;4597;48.730;9.114;2023-07-13T00:29:04;20.90;63.50
9125;DHT22;4597;48.730;9.114;2023-07-13T00:31:33;20.90;63.10
9125;DHT22;4597;48.730;9.114;2023-07-13T00:33:59;20.80;63.20
9125;DHT22;4597;48.730;9.114;2023-07-13T00:36:25;20.70;63.10
9125;DHT22;4597;48.730;9.114;2023-07-13T00:38:52;20.70;63.30
9125;DHT22;4597;48.730;9.114;2023-07-13T00:41:18;20.70;63.30
9125;DHT22;4597;48.730;9.114;2023-07-13T00:43:43;20.70;64.20
9125;DHT22;4597;48.730;9.114;2023-07-13T00:46:17;20.70;65.40
9125;DHT22;4597;48.730;9.114;2023-07-13T00:48:45;20.70;66.10
9125;DHT22;4597;48.730;9.114;2023-07-13T00:51:12;20.70;66.40
9125;DHT22;4597;48.730;9.114;2023-07-13T00:53:38;20.60;66.20
9125;DHT22;4597;48.730;9.114;2023-07-13T00:56:04;20.60;66.60
9125;DHT22;4597;48.730;9.114;2023-07-13T00:58:30;20.60;67.20
9125;DHT22;4597;48.730;9.114;2023-07-13T01:00:56;20.60;67.00
9125;DHT22;4597;48.730;9.114;2023-07-13T01:03:21;20.50;67.10
9125;DHT22;4597;48.730;9.114;2023-07-13T01:05:48;20.50;67.50
9125;DHT22;4597;48.730;9.114;2023-07-13T01:08:15;20.40;67.70
9125;DHT22;4597;48.730;9.114;2023-07-13T01:10:41;20.40;67.80
9125;DHT22;4597;48.730;9.114;2023-07-13T01:13:08;20.40;67.90
9125;DHT22;4597;48.730;9.114;2023-07-13T01:15:47;20.30;68.00
9125;DHT22;4597;48.730;9.114;2023-07-13T01:18:15;20.30;68.20
9125;DHT22;4597;48.730;9.114;2023-07-13T01:20:50;20.30;69.00
9125;DHT22;4597;48.730;9.114;2023-07-13T01:23:16;20.20;69.70
9125;DHT22;4597;48.730;9.114;2023-07-13T01:25:41;20.20;70.30
9125;DHT22;4597;48.730;9.114;2023-07-13T01:28:08;20.10;70.70
9125;DHT22;4597;48.730;9.114;2023-07-13T01:30:37;20.10;71.80
9125;DHT22;4597;48.730;9.114;2023-07-13T01:33:08;20.10;72.40
9125;DHT22;4597;48.730;9.114;2023-07-13T01:35:35;20.10;73.40
9125;DHT22;4597;48.730;9.114;2023-07-13T01:38:02;20.10;73.70
9125;DHT22;4597;48.730;9.114;2023-07-13T01:40:29;20.00;73.60
9125;DHT22;4597;48.730;9.114;2023-07-13T01:42:55;19.90;73.70
9125;DHT22;4597;48.730;9.114;2023-07-13T01:45:20;19.90;74.90
9125;DHT22;4597;48.730;9.114;2023-07-13T01:47:46;19.90;75.20
9125;DHT22;4597;48.730;9.114;2023-07-13T01:50:11;19.90;75.30
9125;DHT22;4597;48.730;9.114;2023-07-13T01:52:37;19.80;75.60
9125;DHT22;4597;48.730;9.114;2023-07-13T01:55:03;19.80;76.10
9125;DHT22;4597;48.730;9.114;2023-07-13T01:57:28;19.80;76.60
9125;DHT22;4597;48.730;9.114;2023-07-13T01:59:54;19.70;76.50
9125;DHT22;4597;48.730;9.114;2023-07-13T02:02:19;19.70;76.60
9125;DHT22;4597;48.730;9.114;2023-07-13T02:04:45;19.60;77.40
9125;DHT22;4597;48.730;9.114;2023-07-13T02:07:11;19.60;78.30
9125;DHT22;4597;48.730;9.114;2023-07-13T02:09:36;19.50;78.60
9125;DHT22;4597;48.730;9.114;2023-07-13T02:12:02;19.50;79.00
9125;DHT22;4597;48.730;9.114;2023-07-13T02:14:27;19.40;79.20
9125;DHT22;4597;48.730;9.114;2023-07-13T02:16:53;19.40;79.90
9125;DHT22;4597;48.730;9.114;2023-07-13T02:19:18;19.40;81.20
9125;DHT22;4597;48.730;9.114;2023-07-13T02:21:44;19.30;81.70
9125;DHT22;4597;48.730;9.114;2023-07-13T02:24:09;19.20;82.70
9125;DHT22;4597;48.730;9.114;2023-07-13T02:26:40;19.20;83.60
9125;DHT22;4597;48.730;9.114;2023-07-13T02:29:05;19.10;83.50
9125;DHT22;4597;48.730;9.114;2023-07-13T02:31:31;19.10;85.00
9125;DHT22;4597;48.730;9.114;2023-07-13T02:33:56;19.10;84.60
9125;DHT22;4597;48.730;9.114;2023-07-13T02:36:22;19.10;86.10
9125;DHT22;4597;48.730;9.114;2023-07-13T02:38:49;19.10;86.10
9125;DHT22;4597;48.730;9.114;2023-07-13T02:41:15;19.10;86.70
9125;DHT22;4597;48.730;9.114;2023-07-13T02:43:40;19.10;88.00
9125;DHT22;4597;48.730;9.114;2023-07-13T02:46:06;19.10;89.10
9125;DHT22;4597;48.730;9.114;2023-07-13T02:48:38;19.00;90.90
9125;DHT22;4597;48.730;9.114;2023-07-13T02:51:04;19.00;91.70
9125;DHT22;4597;48.730;9.114;2023-07-13T02:53:30;19.00;94.30
9125;DHT22;4597;48.730;9.114;2023-07-13T02:55:55;18.90;93.40
9125;DHT22;4597;48.730;9.114;2023-07-13T02:58:21;18.90;93.30
9125;DHT22;4597;48.730;9.114;2023-07-13T03:00:48;18.80;92.70
9125;DHT22;4597;48.730;9.114;2023-07-13T03:03:15;18.80;93.90
9125;DHT22;4597;48.730;9.114;2023-07-13T03:05:43;18.80;94.60
9125;DHT22;4597;48.730;9.114;2023-07-13T03:08:09;18.80;95.90
9125;DHT22;4597;48.730;9.114;2023-07-13T03:10:35;18.70;96.20
9125;DHT22;4597;48.730;9.114;2023-07-13T03:13:00;18.70;97.20
9125;DHT22;4597;48.730;9.114;2023-07-13T03:15:26;18.70;97.50
9125;DHT22;4597;48.730;9.114;2023-07-13T03:17:52;18.60;99.00
9125;DHT22;4597;48.730;9.114;2023-07-13T03:20:18;18.60;99.30
9125;DHT22;4597;48.730;9.114;2023-07-13T03:22:44;18.60;99.80
9125;DHT22;4597;48.730;9.114;2023-07-13T03:25:10;18.60;99.90
9125;DHT22;4597;48.730;9.114;2023-07-13T03:27:36;18.60;99.90
9125;DHT22;4597;48.730;9.114;2023-07-13T03:30:03;18.50;99.90
9125;DHT22;4597;48.730;9.114;2023-07-13T03:32:29;18.50;99.90
9125;DHT22;4597;48.730;9.114;2023-07-13T03:34:55;18.40;99.90
9125;DHT22;4597;48.730;9.114;2023-07-13T03:37:20;18.40;99.90
9125;DHT22;4597;48.730;9.114;2023-07-13T03:39:46;18.40;99.90
9125;DHT22;4597;48.730;9.114;2023-07-13T03:42:12;18.30;99.90
9125;DHT22;4597;48.730;9.114;2023-07-13T03:44:39;18.30;99.90
9125;DHT22;4597;48.730;9.114;2023-07-13T03:47:05;18.20;99.90
9125;DHT22;4597;48.730;9.114;2023-07-13T03:49:31;18.20;99.90
9125;DHT22;4597;48.730;9.114;2023-07-13T03:51:57;18.20;99.90
9125;DHT22;4597;48.730;9.114;2023-07-13T03:54:22;18.20;99.90
9125;DHT22;4597;48.730;9.114;2023-07-13T03:56:48;18.20;99.90
9125;DHT22;4597;48.730;9.114;2023-07-13T03:59:13;18.20;99.90
9125;DHT22;4597;48.730;9.114;2023-07-13T04:01:39;18.20;99.90
9125;DHT22;4597;48.730;9.114;2023-07-13T04:04:04;18.20;99.90
9125;DHT22;4597;48.730;9.114;2023-07-13T04:06:31;18.20;99.90
9125;DHT22;4597;48.730;9.114;2023-07-13T04:09:00;18.20;99.90
9125;DHT22;4597;48.730;9.114;2023-07-13T04:11:29;18.10;99.90
9125;DHT22;4597;48.730;9.114;2023-07-13T04:13:55;18.10;99.90
9125;DHT22;4597;48.730;9.114;2023-07-13T04:16:21;18.10;99.90
9125;DHT22;4597;48.730;9.114;2023-07-13T04:18:47;18.10;99.90
9125;DHT22;4597;48.730;9.114;2023-07-13T04:21:14;18.10;99.90
9125;DHT22;4597;48.730;9.114;2023-07-13T04:23:40;18.00;99.90
9125;DHT22;4597;48.730;9.114;2023-07-13T04:26:06;18.00;99.90
9125;DHT22;4597;48.730;9.114;2023-07-13T04:28:32;18.00;99.90
9125;DHT22;4597;48.730;9.114;2023-07-13T04:30:58;18.00;99.90
9125;DHT22;4597;48.730;9.114;2023-07-13T04:33:23;18.00;99.90
9125;DHT22;4597;48.730;9.114;2023-07-13T04:35:50;18.00;99.90
9125;DHT22;4597;48.730;9.114;2023-07-13T04:38:20;18.00;99.90
9125;DHT22;4597;48.730;9.114;2023-07-13T04:40:45;18.00;99.90
9125;DHT22;4597;48.730;9.114;2023-07-13T04:43:11;18.00;99.90
9125;DHT22;4597;48.730;9.114;2023-07-13T04:45:37;18.00;99.90
9125;DHT22;4597;48.730;9.114;2023-07-13T04:48:02;18.00;99.90
9125;DHT22;4597;48.730;9.114;2023-07-13T04:50:28;18.00;99.90
9125;DHT22;4597;48.730;9.114;2023-07-13T04:52:53;18.00;99.90
9125;DHT22;4597;48.730;9.114;2023-07-13T04:55:19;18.00;99.90
9125;DHT22;4597;48.730;9.114;2023-07-13T04:57:46;18.00;99.90
9125;DHT22;4597;48.730;9.114;2023-07-13T05:00:12;18.00;99.90
9125;DHT22;4597;48.730;9.114;2023-07-13T05:02:38;18.00;99.90
9125;DHT22;4597;48.730;9.114;2023-07-13T05:05:05;18.10;99.90
9125;DHT22;4597;48.730;9.114;2023-07-13T05:07:31;18.10;99.90
9125;DHT22;4597;48.730;9.114;2023-07-13T05:09:58;18.10;99.90
9125;DHT22;4597;48.730;9.114;2023-07-13T05:12:24;18.10;99.90
9125;DHT22;4597;48.730;9.114;2023-07-13T05:14:49;18.10;99.90
9125;DHT22;4597;48.730;9.114;2023-07-13T05:17:15;18.10;99.90
9125;DHT22;4597;48.730;9.114;2023-07-13T05:19:40;18.20;99.90
9125;DHT22;4597;48.730;9.114;2023-07-13T05:22:06;18.20;99.90
9125;DHT22;4597;48.730;9.114;2023-07-13T05:24:31;18.20;99.90
9125;DHT22;4597;48.730;9.114;2023-07-13T05:26:57;18.30;99.90
9125;DHT22;4597;48.730;9.114;2023-07-13T05:29:22;18.30;99.90
9125;DHT22;4597;48.730;9.114;2023-07-13T05:31:49;18.30;99.90
9125;DHT22;4597;48.730;9.114;2023-07-13T05:34:14;18.40;99.90
9125;DHT22;4597;48.730;9.114;2023-07-13T05:36:40;18.40;99.90
9125;DHT22;4597;48.730;9.114;2023-07-13T05:39:06;18.40;99.90
9125;DHT22;4597;48.730;9.114;2023-07-13T05:41:32;18.40;99.90
9125;DHT22;4597;48.730;9.114;2023-07-13T05:43:57;18.40;99.90
9125;DHT22;4597;48.730;9.114;2023-07-13T05:46:23;18.50;99.90
9125;DHT22;4597;48.730;9.114;2023-07-13T05:48:49;18.50;99.90
9125;DHT22;4597;48.730;9.114;2023-07-13T05:51:14;18.60;99.90
9125;DHT22;4597;48.730;9.114;2023-07-13T05:53:40;18.70;99.90
9125;DHT22;4597;48.730;9.114;2023-07-13T05:56:05;18.70;99.90
9125;DHT22;4597;48.730;9.114;2023-07-13T05:58:31;18.80;99.90
9125;DHT22;4597;48.730;9.114;2023-07-13T06:01:03;18.80;99.90
9125;DHT22;4597;48.730;9.114;2023-07-13T06:03:29;18.80;99.90
9125;DHT22;4597;48.730;9.114;2023-07-13T06:05:55;18.80;99.90
9125;DHT22;4597;48.730;9.114;2023-07-13T06:08:20;18.80;99.90
9125;DHT22;4597;48.730;9.114;2023-07-13T06:10:46;18.80;99.90
9125;DHT22;4597;48.730;9.114;2023-07-13T06:13:11;18.80;99.90
9125;DHT22;4597;48.730;9.114;2023-07-13T06:15:37;18.80;99.90
9125;DHT22;4597;48.730;9.114;2023-07-13T06:18:02;18.80;99.90
9125;DHT22;4597;48.730;9.114;2023-07-13T06:20:28;18.80;99.90
9125;DHT22;4597;48.730;9.114;2023-07-13T06:22:54;18.90;99.90
9125;DHT22;4597;48.730;9.114;2023-07-13T06:25:19;18.90;99.90
9125;DHT22;4597;48.730;9.114;2023-07-13T06:27:45;18.90;99.90
9125;DHT22;4597;48.730;9.114;2023-07-13T06:30:11;18.90;99.90
9125;DHT22;4597;48.730;9.114;2023-07-13T06:32:37;18.90;99.90
9125;DHT22;4597;48.730;9.114;2023-07-13T06:35:03;19.00;99.90
9125;DHT22;4597;48.730;9.114;2023-07-13T06:37:29;19.10;99.90
9125;DHT22;4597;48.730;9.114;2023-07-13T06:39:54;19.10;99.90
9125;DHT22;4597;48.730;9.114;2023-07-13T06:42:20;19.10;99.90
9125;DHT22;4597;48.730;9.114;2023-07-13T06:44:45;19.10;99.90
9125;DHT22;4597;48.730;9.114;2023-07-13T06:47:11;19.20;99.90
9125;DHT22;4597;48.730;9.114;2023-07-13T06:49:36;19.20;99.90
9125;DHT22;4597;48.730;9.114;2023-07-13T06:52:02;19.20;99.90
9125;DHT22;4597;48.730;9.114;2023-07-13T06:54:27;19.30;99.90
9125;DHT22;4597;48.730;9.114;2023-07-13T06:56:53;19.30;99.90
9125;DHT22;4597;48.730;9.114;2023-07-13T06:59:19;19.30;99.90
9125;DHT22;4597;48.730;9.114;2023-07-13T07:01:44;19.30;99.90
9125;DHT22;4597;48.730;9.114;2023-07-13T07:04:10;19.30;99.90
9125;DHT22;4597;48.730;9.114;2023-07-13T07:06:35;19.30;99.90
9125;DHT22;4597;48.730;9.114;2023-07-13T07:09:01;19.40;99.90
9125;DHT22;4597;48.730;9.114;2023-07-13T07:11:26;19.50;99.90
9125;DHT22;4597;48.730;9.114;2023-07-13T07:13:53;19.60;96.80
9125;DHT22;4597;48.730;9.114;2023-07-13T07:16:19;19.60;97.20
9125;DHT22;4597;48.730;9.114;2023-07-13T07:18:45;19.60;98.00
9125;DHT22;4597;48.730;9.114;2023-07-13T07:21:10;19.70;97.10
9125;DHT22;4597;48.730;9.114;2023-07-13T07:23:36;19.70;93.60
9125;DHT22;4597;48.730;9.114;2023-07-13T07:26:02;19.80;94.00
9125;DHT22;4597;48.730;9.114;2023-07-13T07:28:28;19.80;92.80
9125;DHT22;4597;48.730;9.114;2023-07-13T07:30:57;19.90;92.00
9125;DHT22;4597;48.730;9.114;2023-07-13T07:33:24;19.90;93.30
9125;DHT22;4597;48.730;9.114;2023-07-13T07:35:50;19.90;93.00
9125;DHT22;4597;48.730;9.114;2023-07-13T07:38:15;19.90;98.60
9125;DHT22;4597;48.730;9.114;2023-07-13T07:40:41;20.00;97.80
9125;DHT22;4597;48.730;9.114;2023-07-13T07:43:08;20.00;96.00
9125;DHT22;4597;48.730;9.114;2023-07-13T07:45:34;20.00;96.20
9125;DHT22;4597;48.730;9.114;2023-07-13T07:47:59;20.00;95.10
9125;DHT22;4597;48.730;9.114;2023-07-13T07:50:26;20.10;92.40
9125;DHT22;4597;48.730;9.114;2023-07-13T07:52:52;20.10;92.70
9125;DHT22;4597;48.730;9.114;2023-07-13T07:55:18;20.20;91.70
9125;DHT22;4597;48.730;9.114;2023-07-13T07:57:43;20.30;85.70
9125;DHT22;4597;48.730;9.114;2023-07-13T08:00:09;20.30;84.50
9125;DHT22;4597;48.730;9.114;2023-07-13T08:02:35;20.40;73.50
9125;DHT22;4597;48.730;9.114;2023-07-13T08:05:00;20.40;74.60
9125;DHT22;4597;48.730;9.114;2023-07-13T08:07:26;20.40;78.60
9125;DHT22;4597;48.730;9.114;2023-07-13T08:09:54;20.40;75.50
9125;DHT22;4597;48.730;9.114;2023-07-13T08:12:20;20.50;75.40
9125;DHT22;4597;48.730;9.114;2023-07-13T08:14:49;20.50;74.70
9125;DHT22;4597;48.730;9.114;2023-07-13T08:17:19;20.60;74.10
9125;DHT22;4597;48.730;9.114;2023-07-13T08:19:45;20.60;72.70
9125;DHT22;4597;48.730;9.114;2023-07-13T08:22:10;20.70;71.40
9125;DHT22;4597;48.730;9.114;2023-07-13T08:24:36;20.80;71.40
9125;DHT22;4597;48.730;9.114;2023-07-13T08:27:01;20.80;68.30
9125;DHT22;4597;48.730;9.114;2023-07-13T08:29:27;20.90;68.80
9125;DHT22;4597;48.730;9.114;2023-07-13T08:31:52;20.90;67.90
9125;DHT22;4597;48.730;9.114;2023-07-13T08:34:18;21.00;64.40
9125;DHT22;4597;48.730;9.114;2023-07-13T08:36:43;21.00;67.30
9125;DHT22;4597;48.730;9.114;2023-07-13T08:39:09;21.00;66.90
9125;DHT22;4597;48.730;9.114;2023-07-13T08:41:34;21.00;64.90
9125;DHT22;4597;48.730;9.114;2023-07-13T08:44:01;21.00;67.40
9125;DHT22;4597;48.730;9.114;2023-07-13T08:46:35;21.10;67.50
9125;DHT22;4597;48.730;9.114;2023-07-13T08:49:22;21.10;67.30
9125;DHT22;4597;48.730;9.114;2023-07-13T08:52:02;21.20;64.90
9125;DHT22;4597;48.730;9.114;2023-07-13T08:54:36;21.30;64.20
9125;DHT22;4597;48.730;9.114;2023-07-13T08:57:14;21.40;65.00
9125;DHT22;4597;48.730;9.114;2023-07-13T08:59:40;21.40;61.60
9125;DHT22;4597;48.730;9.114;2023-07-13T09:04:53;21.50;62.00
9125;DHT22;4597;48.730;9.114;2023-07-13T09:09:55;21.70;60.40
9125;DHT22;4597;48.730;9.114;2023-07-13T09:15:36;21.70;61.60
9125;DHT22;4597;48.730;9.114;2023-07-13T09:20:42;21.90;60.60
9125;DHT22;4597;48.730;9.114;2023-07-13T09:23:14;21.90;60.60
9125;DHT22;4597;48.730;9.114;2023-07-13T09:25:41;21.90;61.50
9125;DHT22;4597;48.730;9.114;2023-07-13T09:28:12;21.90;60.10
9125;DHT22;4597;48.730;9.114;2023-07-13T09:30:50;22.00;58.60
9125;DHT22;4597;48.730;9.114;2023-07-13T09:33:19;22.00;59.10
9125;DHT22;4597;48.730;9.114;2023-07-13T09:35:44;22.10;57.60
9125;DHT22;4597;48.730;9.114;2023-07-13T09:38:13;22.10;58.90
9125;DHT22;4597;48.730;9.114;2023-07-13T09:41:23;22.10;56.00
9125;DHT22;4597;48.730;9.114;2023-07-13T09:44:02;22.00;55.50
9125;DHT22;4597;48.730;9.114;2023-07-13T09:46:34;22.20;56.00
9125;DHT22;4597;48.730;9.114;2023-07-13T09:49:00;22.10;55.90
9125;DHT22;4597;48.730;9.114;2023-07-13T09:51:25;22.20;55.80
9125;DHT22;4597;48.730;9.114;2023-07-13T09:53:51;22.30;56.50
9125;DHT22;4597;48.730;9.114;2023-07-13T09:58:46;22.40;53.20
9125;DHT22;4597;48.730;9.114;2023-07-13T10:01:11;22.60;54.40
9125;DHT22;4597;48.730;9.114;2023-07-13T10:03:37;22.70;53.00
9125;DHT22;4597;48.730;9.114;2023-07-13T10:06:16;22.70;53.00
9125;DHT22;4597;48.730;9.114;2023-07-13T10:08:45;22.70;52.20
9125;DHT22;4597;48.730;9.114;2023-07-13T10:11:11;22.80;51.30
9125;DHT22;4597;48.730;9.114;2023-07-13T10:14:31;22.80;52.90
9125;DHT22;4597;48.730;9.114;2023-07-13T10:16:33;22.90;48.90
9125;DHT22;4597;48.730;9.114;2023-07-13T10:19:02;22.90;48.00
9125;DHT22;4597;48.730;9.114;2023-07-13T10:21:34;22.90;47.70
9125;DHT22;4597;48.730;9.114;2023-07-13T10:24:12;22.90;48.70
9125;DHT22;4597;48.730;9.114;2023-07-13T10:26:47;22.90;48.70
9125;DHT22;4597;48.730;9.114;2023-07-13T10:29:14;23.00;50.30
9125;DHT22;4597;48.730;9.114;2023-07-13T10:31:40;23.00;48.60
9125;DHT22;4597;48.730;9.114;2023-07-13T10:34:10;23.20;49.00
9125;DHT22;4597;48.730;9.114;2023-07-13T10:36:41;23.30;47.50
9125;DHT22;4597;48.730;9.114;2023-07-13T10:39:20;23.30;46.40
9125;DHT22;4597;48.730;9.114;2023-07-13T10:42:01;23.40;45.30
9125;DHT22;4597;48.730;9.114;2023-07-13T10:44:30;23.30;43.50
9125;DHT22;4597;48.730;9.114;2023-07-13T10:46:59;23.20;44.50
9125;DHT22;4597;48.730;9.114;2023-07-13T10:49:27;23.20;45.60
9125;DHT22;4597;48.730;9.114;2023-07-13T10:51:53;23.20;43.00
9125;DHT22;4597;48.730;9.114;2023-07-13T10:54:22;23.30;44.60
9125;DHT22;4597;48.730;9.114;2023-07-13T10:57:05;23.30;45.10
9125;DHT22;4597;48.730;9.114;2023-07-13T10:59:33;23.40;44.00
9125;DHT22;4597;48.730;9.114;2023-07-13T11:02:21;23.40;41.00
9125;DHT22;4597;48.730;9.114;2023-07-13T11:04:48;23.30;40.90
9125;DHT22;4597;48.730;9.114;2023-07-13T11:07:24;23.40;40.70
9125;DHT22;4597;48.730;9.114;2023-07-13T11:09:52;23.50;42.20
9125;DHT22;4597;48.730;9.114;2023-07-13T11:22:48;23.90;41.20
9125;DHT22;4597;48.730;9.114;2023-07-13T11:27:51;24.00;40.40
9125;DHT22;4597;48.730;9.114;2023-07-13T11:30:46;24.00;40.90
9125;DHT22;4597;48.730;9.114;2023-07-13T11:33:15;24.10;40.60
9125;DHT22;4597;48.730;9.114;2023-07-13T11:38:24;24.10;39.70
9125;DHT22;4597;48.730;9.114;2023-07-13T11:40:54;24.20;38.50
9125;DHT22;4597;48.730;9.114;2023-07-13T11:43:21;24.30;40.10
9125;DHT22;4597;48.730;9.114;2023-07-13T11:45:49;24.50;39.60
9125;DHT22;4597;48.730;9.114;2023-07-13T11:48:19;24.60;38.50
9125;DHT22;4597;48.730;9.114;2023-07-13T11:51:00;24.70;38.90
9125;DHT22;4597;48.730;9.114;2023-07-13T11:53:30;24.70;36.60
9125;DHT22;4597;48.730;9.114;2023-07-13T11:56:00;24.80;36.70
9125;DHT22;4597;48.730;9.114;2023-07-13T11:58:27;24.80;35.00
9125;DHT22;4597;48.730;9.114;2023-07-13T12:00:55;24.90;34.90
9125;DHT22;4597;48.730;9.114;2023-07-13T12:03:23;24.90;35.10
9125;DHT22;4597;48.730;9.114;2023-07-13T12:06:01;25.00;35.90
9125;DHT22;4597;48.730;9.114;2023-07-13T12:08:28;25.10;37.20
9125;DHT22;4597;48.730;9.114;2023-07-13T12:11:02;25.10;33.20
9125;DHT22;4597;48.730;9.114;2023-07-13T12:13:35;25.00;32.90
9125;DHT22;4597;48.730;9.114;2023-07-13T12:16:01;24.90;31.70
9125;DHT22;4597;48.730;9.114;2023-07-13T12:18:31;25.00;31.70
9125;DHT22;4597;48.730;9.114;2023-07-13T12:20:59;25.00;31.50
9125;DHT22;4597;48.730;9.114;2023-07-13T12:23:34;25.00;33.20
9125;DHT22;4597;48.730;9.114;2023-07-13T12:26:06;25.20;31.20
9125;DHT22;4597;48.730;9.114;2023-07-13T12:28:43;25.10;29.30
9125;DHT22;4597;48.730;9.114;2023-07-13T12:31:31;25.30;30.10
9125;DHT22;4597;48.730;9.114;2023-07-13T12:34:16;25.40;31.50
9125;DHT22;4597;48.730;9.114;2023-07-13T12:37:01;25.50;32.20
9125;DHT22;4597;48.730;9.114;2023-07-13T12:39:37;25.60;32.60
9125;DHT22;4597;48.730;9.114;2023-07-13T12:45:01;25.70;31.70
9125;DHT22;4597;48.730;9.114;2023-07-13T12:47:28;25.80;32.30
9125;DHT22;4597;48.730;9.114;2023-07-13T12:49:59;25.90;32.30
9125;DHT22;4597;48.730;9.114;2023-07-13T12:52:32;26.00;31.70
9125;DHT22;4597;48.730;9.114;2023-07-13T12:55:13;26.00;31.20
9125;DHT22;4597;48.730;9.114;2023-07-13T12:57:58;25.90;31.10
9125;DHT22;4597;48.730;9.114;2023-07-13T13:02:54;26.00;30.20
9125;DHT22;4597;48.730;9.114;2023-07-13T13:05:21;26.10;30.30
9125;DHT22;4597;48.730;9.114;2023-07-13T13:07:49;26.20;31.10
9125;DHT22;4597;48.730;9.114;2023-07-13T13:10:15;26.20;29.70
9125;DHT22;4597;48.730;9.114;2023-07-13T13:12:41;26.40;31.30
9125;DHT22;4597;48.730;9.114;2023-07-13T13:15:12;26.50;30.60
9125;DHT22;4597;48.730;9.114;2023-07-13T13:17:38;26.50;29.90
9125;DHT22;4597;48.730;9.114;2023-07-13T13:20:18;26.60;27.90
9125;DHT22;4597;48.730;9.114;2023-07-13T13:22:44;26.80;27.10
9125;DHT22;4597;48.730;9.114;2023-07-13T13:25:14;26.90;26.80
9125;DHT22;4597;48.730;9.114;2023-07-13T13:27:41;27.10;27.70
9125;DHT22;4597;48.730;9.114;2023-07-13T13:30:15;27.10;29.00
9125;DHT22;4597;48.730;9.114;2023-07-13T13:32:42;27.30;27.00
9125;DHT22;4597;48.730;9.114;2023-07-13T13:35:18;27.40;28.40
9125;DHT22;4597;48.730;9.114;2023-07-13T13:37:46;27.60;28.60
9125;DHT22;4597;48.730;9.114;2023-07-13T13:40:18;27.80;28.50
9125;DHT22;4597;48.730;9.114;2023-07-13T13:42:44;28.00;26.80
9125;DHT22;4597;48.730;9.114;2023-07-13T13:45:10;27.90;26.10
9125;DHT22;4597;48.730;9.114;2023-07-13T13:47:37;28.10;26.60
9125;DHT22;4597;48.730;9.114;2023-07-13T13:50:15;28.10;26.90
9125;DHT22;4597;48.730;9.114;2023-07-13T13:52:41;28.40;26.60
9125;DHT22;4597;48.730;9.114;2023-07-13T13:55:15;28.60;25.50
9125;DHT22;4597;48.730;9.114;2023-07-13T13:57:41;28.70;25.00
9125;DHT22;4597;48.730;9.114;2023-07-13T14:00:09;28.90;24.80
9125;DHT22;4597;48.730;9.114;2023-07-13T14:02:40;29.20;25.20
9125;DHT22;4597;48.730;9.114;2023-07-13T14:05:06;29.50;25.20
9125;DHT22;4597;48.730;9.114;2023-07-13T14:07:35;29.90;26.10
9125;DHT22;4597;48.730;9.114;2023-07-13T14:10:01;30.40;23.90
9125;DHT22;4597;48.730;9.114;2023-07-13T14:12:28;30.10;24.00
9125;DHT22;4597;48.730;9.114;2023-07-13T14:14:55;30.10;23.00
9125;DHT22;4597;48.730;9.114;2023-07-13T14:17:25;30.90;23.00
9125;DHT22;4597;48.730;9.114;2023-07-13T14:19:52;32.60;21.60
9125;DHT22;4597;48.730;9.114;2023-07-13T14:22:25;34.20;19.80
9125;DHT22;4597;48.730;9.114;2023-07-13T14:24:54;35.60;17.40
9125;DHT22;4597;48.730;9.114;2023-07-13T14:27:21;36.30;16.60
9125;DHT22;4597;48.730;9.114;2023-07-13T14:29:47;36.50;15.40
9125;DHT22;4597;48.730;9.114;2023-07-13T14:32:13;36.80;15.10
9125;DHT22;4597;48.730;9.114;2023-07-13T14:34:39;37.60;14.70
9125;DHT22;4597;48.730;9.114;2023-07-13T14:37:05;37.90;12.50
9125;DHT22;4597;48.730;9.114;2023-07-13T14:39:37;37.70;12.90
9125;DHT22;4597;48.730;9.114;2023-07-13T14:42:04;38.40;12.50
9125;DHT22;4597;48.730;9.114;2023-07-13T14:44:30;39.40;11.20
9125;DHT22;4597;48.730;9.114;2023-07-13T14:46:58;39.60;11.40
9125;DHT22;4597;48.730;9.114;2023-07-13T14:51:55;38.00;11.60
9125;DHT22;4597;48.730;9.114;2023-07-13T14:54:23;36.80;12.90
9125;DHT22;4597;48.730;9.114;2023-07-13T14:56:49;35.70;14.30
9125;DHT22;4597;48.730;9.114;2023-07-13T14:59:16;35.10;14.50
9125;DHT22;4597;48.730;9.114;2023-07-13T15:01:44;34.00;15.20
9125;DHT22;4597;48.730;9.114;2023-07-13T15:04:10;32.80;16.60
9125;DHT22;4597;48.730;9.114;2023-07-13T15:07:02;32.50;16.40
9125;DHT22;4597;48.730;9.114;2023-07-13T15:09:30;32.70;16.90
9125;DHT22;4597;48.730;9.114;2023-07-13T15:11:56;32.50;17.60
9125;DHT22;4597;48.730;9.114;2023-07-13T15:14:22;31.90;17.70
9125;DHT22;4597;48.730;9.114;2023-07-13T15:16:51;31.30;18.50
9125;DHT22;4597;48.730;9.114;2023-07-13T15:19:18;31.50;18.80
9125;DHT22;4597;48.730;9.114;2023-07-13T15:21:44;31.90;18.10
9125;DHT22;4597;48.730;9.114;2023-07-13T15:24:10;32.50;18.00
9125;DHT22;4597;48.730;9.114;2023-07-13T15:26:36;32.90;16.90
9125;DHT22;4597;48.730;9.114;2023-07-13T15:29:02;32.60;17.20
9125;DHT22;4597;48.730;9.114;2023-07-13T15:31:28;33.30;17.50
9125;DHT22;4597;48.730;9.114;2023-07-13T15:33:57;33.60;17.00
9125;DHT22;4597;48.730;9.114;2023-07-13T15:36:25;33.40;17.10
9125;DHT22;4597;48.730;9.114;2023-07-13T15:38:55;33.50;16.80
9125;DHT22;4597;48.730;9.114;2023-07-13T15:41:21;33.60;16.90
9125;DHT22;4597;48.730;9.114;2023-07-13T15:43:49;33.80;16.10
9125;DHT22;4597;48.730;9.114;2023-07-13T15:46:20;33.60;16.70
9125;DHT22;4597;48.730;9.114;2023-07-13T15:48:50;33.30;15.80
9125;DHT22;4597;48.730;9.114;2023-07-13T15:51:24;33.20;16.20
9125;DHT22;4597;48.730;9.114;2023-07-13T15:53:53;33.30;16.30
9125;DHT22;4597;48.730;9.114;2023-07-13T15:56:28;33.70;15.80
9125;DHT22;4597;48.730;9.114;2023-07-13T15:58:54;33.60;15.90
9125;DHT22;4597;48.730;9.114;2023-07-13T16:01:22;34.20;16.30
9125;DHT22;4597;48.730;9.114;2023-07-13T16:03:48;34.50;15.60
9125;DHT22;4597;48.730;9.114;2023-07-13T16:06:23;33.60;15.70
9125;DHT22;4597;48.730;9.114;2023-07-13T16:08:51;33.70;15.70
9125;DHT22;4597;48.730;9.114;2023-07-13T16:11:25;33.40;16.80
9125;DHT22;4597;48.730;9.114;2023-07-13T16:13:52;33.40;16.20
9125;DHT22;4597;48.730;9.114;2023-07-13T16:16:23;33.90;15.90
9125;DHT22;4597;48.730;9.114;2023-07-13T16:18:59;33.70;16.40
9125;DHT22;4597;48.730;9.114;2023-07-13T16:21:31;34.20;16.60
9125;DHT22;4597;48.730;9.114;2023-07-13T16:23:58;34.50;16.00
9125;DHT22;4597;48.730;9.114;2023-07-13T16:26:35;34.80;15.70
9125;DHT22;4597;48.730;9.114;2023-07-13T16:29:24;34.70;16.40
9125;DHT22;4597;48.730;9.114;2023-07-13T16:32:13;34.00;15.50
9125;DHT22;4597;48.730;9.114;2023-07-13T16:34:41;34.20;16.00
9125;DHT22;4597;48.730;9.114;2023-07-13T16:37:28;34.50;15.70
9125;DHT22;4597;48.730;9.114;2023-07-13T16:39:56;34.80;16.00
9125;DHT22;4597;48.730;9.114;2023-07-13T16:42:24;35.60;15.10
9125;DHT22;4597;48.730;9.114;2023-07-13T16:44:50;36.20;14.90
9125;DHT22;4597;48.730;9.114;2023-07-13T16:47:20;38.00;13.20